Southern Illinois Airport
KMDH : now visible

Airfield :











YOU CAN JOIN US ON...

 
LOGIN :

Register | Disclaimer

   EN    FR    IT 

 









Legend :    VFR   Marginal VFR   IFR   Intensive IFR   Very Intensive IFR
Visi :
Ceiling :
>= 8 km
>= 3000ft
5 to 8 km
1000 to 3000 ft
1500m to 5 km
500 to 1000 ft
800 to 1500m
200 to 500 ft
< 800m
< 200 ft
Symbols :   Thunderstorms  Fog  Heavy snow  Heavy precipitations  Wind > 20 kt






- Airport Elevation : 411 ft
- IATA code : MDH


KMDH - Southern Illinois

CURRENT METAR :
  • 101852Z 27016G28KT 10SM BKN055 18/08 A2948 RMK AO2 PK WND 27028/1852 SLP980 T01830078

EXPIRED METARs :
  • 101752Z 25018G24KT 10SM FEW043 BKN055 18/10 A2948 RMK AO2 SLP982 60005 T01830100 10194 20161 58009
  • 101652Z 24007KT 9SM SCT014 SCT025 OVC047 16/14 A2951 RMK AO2 WSHFT 1620 RAE1558B16E42 SLP990 P0002 T01610144
  • 101634Z 25010G25KT 7SM -RA FEW011 BKN028 OVC043 16/14 A2951 RMK AO2 WSHFT 1620 RAE1558B16 P0002 T01610139
  • 101623Z 23012G20KT 2SM -RA BR FEW009 BKN018 OVC026 16/15 A2951 RMK AO2 VIS 1 1/4V5 RAE1558B16 P0002 T01610150
  • 101611Z 19012KT 10SM FEW011 BKN023 OVC049 17/15 A2950 RMK AO2 RAE1558 P0000 T01670150

TAF N/A
KZKC FIR / North America



MET'MAP, your aeronautical weather chart ! - Copyright ORBIFLY December 2007 - Disclaimer

ORBIFLY MET'MAP TEAM :

Programming & Development : Alexandra Zaïnal
Concept & original design : Baudouin d'Aumeries
Assistance for programming : Marc-Olivier Méhu
Technical & hardware support : Manuel Goepfert

Contact : metmap@orbifly.com




SOURCES & CREDITS :

   NOAA       Earth
Advisory